createdAt,value
2023-07-12T05:00:37.166Z,18.04
2023-07-12T05:01:39.910Z,18.18
2023-07-12T05:02:45.520Z,18.29
2023-07-12T05:03:50.767Z,18.37
2023-07-12T05:04:56.088Z,18.45
2023-07-12T05:06:01.363Z,18.54
2023-07-12T05:07:06.369Z,18.66
2023-07-12T05:08:11.075Z,18.79
2023-07-12T05:09:15.772Z,18.90
2023-07-12T05:10:20.555Z,19.02
2023-07-12T05:11:25.929Z,19.13
2023-07-12T05:12:30.627Z,19.24
2023-07-12T05:13:35.503Z,19.36
2023-07-12T05:14:40.651Z,19.46
2023-07-12T05:15:51.852Z,19.54
2023-07-12T05:16:57.019Z,19.60
2023-07-12T05:18:01.916Z,19.67
2023-07-12T05:19:07.457Z,19.72
2023-07-12T05:20:14.175Z,19.81
2023-07-12T05:21:20.003Z,19.89
2023-07-12T05:22:22.685Z,19.93
2023-07-12T05:23:27.574Z,19.97
2023-07-12T05:24:32.244Z,20.03
2023-07-12T05:25:37.177Z,20.09
2023-07-12T05:26:42.532Z,20.09
2023-07-12T05:27:47.588Z,20.09
2023-07-12T05:28:50.110Z,20.06
2023-07-12T05:29:54.397Z,20.04
2023-07-12T05:32:03.553Z,20.02
2023-07-12T05:33:09.365Z,20.00
2023-07-12T05:34:14.193Z,20.00
2023-07-12T05:35:18.892Z,19.99
2023-07-12T05:36:21.394Z,19.98
2023-07-12T05:37:25.798Z,19.95
2023-07-12T05:38:31.570Z,19.92
2023-07-12T05:39:34.134Z,19.94
2023-07-12T05:40:38.478Z,19.92
2023-07-12T05:41:43.652Z,19.90
2023-07-12T05:42:48.914Z,19.88
2023-07-12T05:43:54.005Z,19.89
2023-07-12T05:44:59.226Z,19.92
2023-07-12T05:46:04.006Z,19.97
2023-07-12T05:48:08.888Z,20.13
2023-07-12T05:49:11.263Z,20.23
2023-07-12T05:50:18.127Z,20.32
2023-07-12T05:51:23.257Z,20.40
2023-07-12T05:52:27.965Z,20.40
2023-07-12T05:53:32.643Z,20.40
2023-07-12T05:54:37.404Z,20.40
2023-07-12T05:55:39.855Z,20.44
2023-07-12T05:56:42.466Z,20.42
2023-07-12T05:57:45.852Z,20.43
2023-07-12T05:58:48.360Z,20.50
2023-07-12T05:59:50.976Z,20.55
2023-07-12T06:02:08.680Z,20.67
2023-07-12T06:03:13.805Z,20.60
2023-07-12T06:04:20.769Z,20.61
2023-07-12T06:05:23.000Z,20.62
2023-07-12T06:06:25.563Z,20.62
2023-07-12T06:07:28.140Z,20.59
2023-07-12T06:08:30.642Z,20.60
2023-07-12T06:09:33.195Z,20.64
2023-07-12T06:10:38.240Z,20.71
2023-07-12T06:12:45.100Z,20.86
2023-07-12T06:13:47.593Z,20.90
2023-07-12T06:14:50.038Z,20.88
2023-07-12T06:15:52.498Z,20.92
2023-07-12T06:16:55.081Z,20.96
2023-07-12T06:17:57.808Z,20.95
2023-07-12T06:19:00.855Z,20.94
2023-07-12T06:20:07.111Z,20.94
2023-07-12T06:21:12.366Z,20.96
2023-07-12T06:22:17.229Z,20.93
2023-07-12T06:23:22.013Z,20.92
2023-07-12T06:24:24.427Z,20.91
2023-07-12T06:25:33.076Z,20.91
2023-07-12T06:26:38.185Z,20.93
2023-07-12T06:27:43.442Z,20.90
2023-07-12T06:28:48.132Z,20.90
2023-07-12T06:29:52.903Z,20.95
2023-07-12T06:30:58.173Z,21.00
2023-07-12T06:32:03.904Z,21.03
2023-07-12T06:33:07.472Z,21.03
2023-07-12T06:34:12.593Z,21.07
2023-07-12T06:35:18.115Z,21.08
2023-07-12T06:36:20.728Z,21.11
2023-07-12T06:37:23.385Z,21.14
2023-07-12T06:38:25.924Z,21.19
2023-07-12T06:39:28.522Z,21.28
2023-07-12T06:40:31.095Z,21.38
2023-07-12T06:41:33.688Z,21.46
2023-07-12T06:42:36.295Z,21.52
2023-07-12T06:43:38.936Z,21.58
2023-07-12T06:44:41.383Z,21.63
2023-07-12T06:45:49.530Z,21.67
2023-07-12T06:46:54.938Z,21.74
2023-07-12T06:47:57.818Z,21.78
2023-07-12T06:49:00.368Z,21.83
2023-07-12T06:50:02.973Z,21.86
2023-07-12T06:51:08.241Z,21.88
2023-07-12T06:52:13.618Z,21.89
2023-07-12T06:53:16.302Z,21.88
2023-07-12T06:54:18.738Z,21.90
2023-07-12T06:55:21.185Z,21.96
2023-07-12T06:56:26.623Z,22.08
2023-07-12T06:57:31.378Z,22.15
2023-07-12T06:58:36.352Z,22.20
2023-07-12T06:59:38.856Z,22.23
2023-07-12T07:00:42.448Z,22.28
2023-07-12T07:01:46.484Z,22.27
2023-07-12T07:02:51.413Z,22.34
2023-07-12T07:03:56.541Z,22.31
2023-07-12T07:05:01.817Z,22.25
2023-07-12T07:06:06.590Z,22.23
2023-07-12T07:07:11.547Z,22.26
2023-07-12T07:08:18.427Z,22.26
2023-07-12T07:09:23.494Z,22.29
2023-07-12T07:10:30.319Z,22.33
2023-07-12T07:11:32.915Z,22.31
2023-07-12T07:12:35.605Z,22.34
2023-07-12T07:13:42.397Z,22.33
2023-07-12T07:14:47.197Z,22.27
2023-07-12T07:15:52.506Z,22.13
2023-07-12T07:16:57.331Z,22.15
2023-07-12T07:18:02.140Z,22.19
2023-07-12T07:19:07.364Z,22.17
2023-07-12T07:20:13.860Z,22.14
2023-07-12T07:21:18.752Z,22.22
2023-07-12T07:22:24.020Z,22.28
2023-07-12T07:23:28.700Z,22.33
2023-07-12T07:24:33.944Z,22.35
2023-07-12T07:25:37.128Z,22.31
2023-07-12T07:26:42.327Z,22.35
2023-07-12T07:27:47.014Z,22.39
2023-07-12T07:28:51.859Z,22.45
2023-07-12T07:29:56.481Z,22.49
2023-07-12T07:31:01.345Z,22.52
2023-07-12T07:32:08.496Z,22.51
2023-07-12T07:33:12.113Z,22.49
2023-07-12T07:34:18.274Z,22.48
2023-07-12T07:35:21.435Z,22.44
2023-07-12T07:36:26.541Z,22.41
2023-07-12T07:37:29.048Z,22.44
2023-07-12T07:38:31.629Z,22.46
2023-07-12T07:39:34.120Z,22.51
2023-07-12T07:40:41.559Z,22.56
2023-07-12T07:41:46.606Z,22.61
2023-07-12T07:42:51.792Z,22.62
2023-07-12T07:43:57.055Z,22.57
2023-07-12T07:45:08.692Z,22.51
2023-07-12T07:46:17.477Z,22.51
2023-07-12T07:47:22.263Z,22.52
2023-07-12T07:48:28.479Z,22.53
2023-07-12T07:49:33.673Z,22.54
2023-07-12T07:50:38.120Z,22.49
2023-07-12T07:51:42.814Z,22.51
2023-07-12T07:52:46.109Z,22.52
2023-07-12T07:53:50.763Z,22.54
2023-07-12T07:54:55.487Z,22.39
2023-07-12T07:56:00.596Z,22.39
2023-07-12T07:57:07.361Z,22.42
2023-07-12T07:58:12.574Z,22.38
2023-07-12T07:59:19.026Z,22.37
2023-07-12T08:00:23.842Z,22.30
2023-07-12T08:01:29.158Z,22.30
2023-07-12T08:02:31.893Z,22.27
2023-07-12T08:03:37.634Z,22.23
2023-07-12T08:04:42.881Z,22.22
2023-07-12T08:05:49.412Z,22.21
2023-07-12T08:06:54.195Z,22.20
2023-07-12T08:07:57.984Z,22.18
2023-07-12T08:09:02.779Z,22.19
2023-07-12T08:10:09.314Z,22.18
2023-07-12T08:11:14.316Z,22.23
2023-07-12T08:12:19.067Z,22.31
2023-07-12T08:13:24.235Z,22.35
2023-07-12T08:14:31.124Z,22.40
2023-07-12T08:15:34.526Z,22.40
2023-07-12T08:16:37.121Z,22.39
2023-07-12T08:17:42.517Z,22.30
2023-07-12T08:18:47.665Z,22.20
2023-07-12T08:19:50.604Z,22.18
2023-07-12T08:20:57.210Z,22.20
2023-07-12T08:21:59.771Z,22.22
2023-07-12T08:23:02.481Z,22.24
2023-07-12T08:24:08.896Z,22.28
2023-07-12T08:25:13.916Z,22.30
2023-07-12T08:26:18.708Z,22.33
2023-07-12T08:27:23.476Z,22.32
2023-07-12T08:28:26.016Z,22.34
2023-07-12T08:29:30.805Z,22.43
2023-07-12T08:30:35.641Z,22.53
2023-07-12T08:31:38.327Z,22.63
2023-07-12T08:32:43.632Z,22.72
2023-07-12T08:33:46.647Z,22.81
2023-07-12T08:34:52.189Z,22.89
2023-07-12T08:35:57.121Z,22.96
2023-07-12T08:37:01.932Z,23.02
2023-07-12T08:38:07.125Z,23.06
2023-07-12T08:39:12.212Z,23.12
2023-07-12T08:40:17.301Z,23.19
2023-07-12T08:41:23.646Z,23.24
2023-07-12T08:42:32.828Z,23.24
2023-07-12T08:43:37.682Z,23.18
2023-07-12T08:44:42.356Z,23.12
2023-07-12T08:45:45.065Z,23.13
2023-07-12T08:46:52.899Z,23.12
2023-07-12T08:48:03.147Z,23.11
2023-07-12T08:49:08.043Z,23.14
2023-07-12T08:50:13.958Z,23.19
2023-07-12T08:51:18.278Z,23.22
2023-07-12T08:52:23.575Z,23.26
2023-07-12T08:53:28.038Z,23.27
2023-07-12T08:54:31.091Z,23.19
2023-07-12T08:55:35.775Z,23.19
2023-07-12T08:56:40.886Z,23.17
2023-07-12T08:57:45.751Z,23.15
2023-07-12T08:58:50.271Z,23.06
2023-07-12T09:01:12.076Z,23.02
2023-07-12T09:03:26.626Z,22.93
2023-07-12T09:04:33.385Z,22.89
2023-07-12T09:05:38.290Z,22.91
2023-07-12T09:06:44.060Z,22.94
2023-07-12T09:07:53.384Z,22.98
2023-07-12T09:08:58.220Z,23.05
2023-07-12T09:10:02.895Z,23.11
2023-07-12T09:11:09.784Z,23.21
2023-07-12T09:13:37.180Z,23.62
2023-07-12T09:14:42.185Z,23.64
2023-07-12T09:15:50.417Z,23.76
2023-07-12T09:17:00.982Z,23.87
2023-07-12T09:18:08.912Z,23.99
2023-07-12T09:19:22.293Z,24.06
2023-07-12T09:20:27.684Z,24.09
2023-07-12T09:21:33.395Z,24.09
2023-07-12T09:22:39.792Z,24.04
2023-07-12T09:23:46.857Z,23.90
2023-07-12T09:24:57.484Z,23.79
2023-07-12T09:26:02.862Z,23.76
2023-07-12T09:27:10.104Z,23.78
2023-07-12T09:28:16.237Z,23.82
2023-07-12T09:29:22.919Z,23.84
2023-07-12T09:30:29.703Z,23.84
2023-07-12T09:31:35.432Z,23.82
2023-07-12T09:32:40.351Z,23.73
2023-07-12T09:33:47.580Z,23.70
2023-07-12T09:34:53.359Z,23.57
2023-07-12T09:35:57.994Z,23.51
2023-07-12T09:37:03.030Z,23.49
2023-07-12T09:39:20.712Z,23.60
2023-07-12T09:40:25.416Z,23.59
2023-07-12T09:41:31.134Z,23.72
2023-07-12T09:42:35.864Z,23.81
2023-07-12T09:43:40.821Z,23.89
2023-07-12T09:44:50.028Z,23.96
2023-07-12T09:47:15.567Z,24.08
2023-07-12T09:48:51.539Z,24.17
2023-07-12T09:49:59.885Z,24.23
2023-07-12T09:52:35.799Z,24.47
2023-07-12T09:53:45.062Z,24.43
2023-07-12T09:55:08.900Z,24.49
2023-07-12T09:56:18.360Z,24.58
2023-07-12T09:58:40.851Z,25.03
2023-07-12T10:00:00.994Z,25.05
2023-07-12T10:02:36.117Z,25.37
2023-07-12T10:03:41.764Z,25.38
2023-07-12T10:04:52.769Z,25.41
2023-07-12T10:06:06.818Z,25.44
2023-07-12T10:12:47.807Z,25.31
2023-07-12T10:13:58.141Z,25.21
2023-07-12T10:15:02.891Z,25.16
2023-07-12T10:16:09.665Z,25.09
2023-07-12T10:17:34.390Z,25.01
2023-07-12T10:18:37.616Z,24.94
2023-07-12T10:19:42.694Z,24.87
2023-07-12T10:20:47.927Z,24.81
2023-07-12T10:21:51.967Z,24.76
2023-07-12T10:22:57.003Z,24.74
2023-07-12T10:24:02.599Z,24.75
2023-07-12T10:25:09.767Z,24.76
2023-07-12T10:26:15.920Z,24.75
2023-07-12T10:27:29.621Z,24.73
2023-07-12T10:29:03.915Z,24.64
2023-07-12T10:30:12.507Z,24.54
2023-07-12T10:31:42.760Z,24.52
2023-07-12T10:33:25.625Z,24.51
2023-07-12T10:34:36.624Z,24.42
2023-07-12T10:37:06.538Z,24.47
2023-07-12T10:38:15.036Z,24.34
2023-07-12T10:39:20.745Z,24.33
2023-07-12T10:40:28.435Z,24.32
2023-07-12T10:41:38.604Z,24.35
2023-07-12T10:42:44.667Z,24.43
2023-07-12T10:44:58.720Z,24.86
2023-07-12T10:46:08.911Z,24.90
2023-07-12T10:47:14.479Z,25.00
2023-07-12T10:48:22.640Z,25.09
2023-07-12T10:49:49.219Z,25.17
2023-07-12T10:50:56.593Z,25.28
2023-07-12T10:52:15.072Z,25.34
2023-07-12T10:53:36.222Z,25.43
2023-07-12T10:54:36.275Z,25.57
2023-07-12T10:56:01.466Z,25.70
2023-07-12T10:58:24.587Z,25.93
2023-07-12T10:59:35.954Z,25.84
2023-07-12T11:00:44.292Z,25.84
2023-07-12T11:03:17.657Z,25.96
2023-07-12T11:04:37.285Z,25.84
2023-07-12T11:05:59.628Z,25.86
2023-07-12T11:07:06.791Z,25.88
2023-07-12T11:08:35.077Z,25.89
2023-07-12T11:09:47.737Z,25.85
2023-07-12T11:10:52.866Z,25.83
2023-07-12T11:12:03.811Z,25.82
2023-07-12T11:13:14.632Z,25.81
2023-07-12T11:14:20.044Z,25.86
2023-07-12T11:16:35.934Z,26.09
2023-07-12T11:18:03.925Z,26.03
2023-07-12T11:19:12.943Z,26.05
2023-07-12T11:20:26.906Z,26.00
2023-07-12T11:21:49.305Z,26.00
2023-07-12T11:23:03.439Z,26.04
2023-07-12T11:25:52.935Z,26.18
2023-07-12T11:26:57.356Z,26.02
2023-07-12T11:28:04.212Z,25.89
2023-07-12T11:29:24.661Z,25.82
2023-07-12T11:30:33.696Z,25.76
2023-07-12T11:31:38.943Z,25.75
2023-07-12T11:32:43.984Z,25.72
2023-07-12T11:34:15.169Z,25.68
2023-07-12T11:35:20.640Z,25.66
2023-07-12T11:38:50.569Z,25.69
2023-07-12T11:39:55.612Z,25.63
2023-07-12T11:42:27.861Z,25.65
2023-07-12T11:43:35.294Z,25.62
2023-07-12T11:44:39.949Z,25.57
2023-07-12T11:45:45.108Z,25.58
2023-07-12T11:46:50.125Z,25.62
2023-07-12T11:47:54.392Z,25.68
2023-07-12T11:49:14.605Z,25.64
2023-07-12T11:50:28.056Z,25.61
2023-07-12T11:51:37.354Z,25.60
2023-07-12T11:52:41.995Z,25.63
2023-07-12T11:53:58.550Z,25.71
2023-07-12T11:55:06.064Z,25.72
2023-07-12T11:56:15.013Z,25.72
2023-07-12T11:57:19.693Z,25.75
2023-07-12T11:58:26.517Z,25.80
2023-07-12T11:59:33.759Z,25.88
2023-07-12T12:00:38.497Z,25.91
2023-07-12T12:01:43.574Z,25.95
2023-07-12T12:02:53.280Z,25.98
2023-07-12T12:03:58.673Z,26.04
2023-07-12T12:05:06.647Z,26.11
2023-07-12T12:06:12.375Z,26.11
2023-07-12T12:07:26.807Z,26.07
2023-07-12T12:08:31.550Z,26.09
2023-07-12T12:09:38.910Z,26.15
2023-07-12T12:10:43.684Z,26.22
2023-07-12T12:11:46.355Z,26.28
2023-07-12T12:12:49.779Z,26.30
2023-07-12T12:13:55.814Z,26.24
2023-07-12T12:15:00.698Z,26.14
2023-07-12T12:17:21.730Z,26.03
2023-07-12T12:18:26.675Z,25.87
2023-07-12T12:19:31.873Z,25.81
2023-07-12T12:20:37.264Z,25.73
2023-07-12T12:21:55.782Z,25.68
2023-07-12T12:23:07.457Z,25.62
2023-07-12T12:24:18.325Z,25.56
2023-07-12T12:26:40.955Z,25.56
2023-07-12T12:27:45.718Z,25.39
2023-07-12T12:29:04.063Z,25.32
2023-07-12T12:30:21.258Z,25.33
2023-07-12T12:31:28.044Z,25.37
2023-07-12T12:32:31.184Z,25.48
2023-07-12T12:33:36.078Z,25.55
2023-07-12T12:34:40.927Z,25.64
2023-07-12T12:38:24.027Z,26.08
2023-07-12T12:39:29.008Z,26.04
2023-07-12T12:40:34.112Z,26.11
2023-07-12T12:41:39.448Z,26.20
2023-07-12T12:43:07.151Z,26.29
2023-07-12T12:44:15.402Z,26.35
2023-07-12T12:45:17.905Z,26.45
2023-07-12T12:46:23.722Z,26.48
2023-07-12T12:47:30.969Z,26.48
2023-07-12T12:54:12.682Z,26.95
2023-07-12T12:55:33.229Z,27.00
2023-07-12T13:01:14.755Z,27.02
2023-07-12T13:05:31.270Z,26.90
2023-07-12T13:06:23.581Z,26.76
2023-07-12T13:09:04.986Z,26.68
2023-07-12T13:19:40.068Z,26.12
2023-07-12T13:20:42.377Z,26.08
2023-07-12T13:21:45.586Z,26.07
2023-07-12T13:22:48.896Z,26.11
2023-07-12T13:23:51.403Z,26.17
2023-07-12T13:24:55.720Z,26.17
2023-07-12T13:26:01.618Z,26.09
2023-07-12T13:27:04.267Z,25.98
2023-07-12T13:28:10.128Z,25.91
2023-07-12T13:29:19.575Z,25.85
2023-07-12T13:30:22.918Z,25.81
2023-07-12T13:31:25.447Z,25.84
2023-07-12T13:32:28.223Z,25.88
2023-07-12T13:33:30.702Z,25.85
2023-07-12T13:36:50.565Z,25.89
2023-07-12T13:39:28.385Z,25.96
2023-07-12T13:40:22.713Z,26.03
2023-07-12T13:42:43.921Z,25.91
2023-07-12T13:45:15.514Z,25.86
2023-07-12T13:45:49.771Z,25.81
2023-07-12T13:46:52.490Z,25.81
2023-07-12T13:47:57.707Z,25.86
2023-07-12T13:49:02.489Z,25.93
2023-07-12T13:50:09.271Z,25.95
2023-07-12T13:51:22.653Z,25.95
2023-07-12T13:52:26.914Z,25.90
2023-07-12T13:53:33.186Z,25.85
2023-07-12T13:54:37.514Z,25.84
2023-07-12T13:56:48.366Z,25.86
2023-07-12T13:57:53.621Z,25.88
2023-07-12T14:01:24.950Z,25.99
2023-07-12T14:03:43.113Z,26.15
2023-07-12T14:04:53.190Z,26.03
2023-07-12T14:05:58.105Z,26.04
2023-07-12T14:07:14.427Z,26.07
2023-07-12T14:09:10.433Z,26.04
2023-07-12T14:10:20.738Z,26.01
2023-07-12T14:11:31.058Z,26.01
2023-07-12T14:12:33.690Z,25.98
2023-07-12T14:13:36.122Z,25.96
2023-07-12T14:14:38.556Z,25.98
2023-07-12T14:15:40.919Z,25.92
2023-07-12T14:16:43.454Z,25.85
2023-07-12T14:17:46.067Z,25.84
2023-07-12T14:18:50.881Z,25.84
2023-07-12T14:19:57.691Z,25.88
2023-07-12T14:21:01.450Z,25.90
2023-07-12T14:22:07.335Z,25.93
2023-07-12T14:24:21.651Z,26.06
2023-07-12T14:25:26.556Z,26.00
2023-07-12T14:26:29.187Z,26.04
2023-07-12T14:27:36.178Z,26.08
2023-07-12T14:28:41.595Z,26.12
2023-07-12T14:31:56.087Z,26.12
2023-07-12T14:33:00.393Z,26.13
2023-07-12T14:34:02.783Z,26.13
2023-07-12T14:35:10.158Z,26.15
2023-07-12T14:36:16.766Z,26.18
2023-07-12T14:37:21.556Z,26.19
2023-07-12T14:38:27.250Z,26.17
2023-07-12T14:39:32.358Z,26.11
2023-07-12T14:40:37.365Z,26.10
2023-07-12T14:41:44.264Z,26.09
2023-07-12T14:42:47.156Z,26.12
2023-07-12T14:43:52.498Z,26.18
2023-07-12T14:44:55.179Z,26.24
2023-07-12T14:45:57.680Z,26.28
2023-07-12T14:47:01.336Z,26.29
2023-07-12T14:49:18.885Z,26.21
2023-07-12T14:50:21.636Z,26.02
2023-07-12T14:51:24.794Z,25.99
2023-07-12T14:53:42.047Z,26.07
2023-07-12T14:55:53.254Z,25.96
2023-07-12T14:57:08.908Z,25.91
2023-07-12T14:58:18.702Z,25.89
2023-07-12T15:00:23.869Z,26.00
2023-07-12T15:01:29.533Z,25.91
2023-07-12T15:02:34.126Z,25.91
2023-07-12T15:03:41.380Z,25.91
2023-07-12T15:04:46.038Z,25.91
2023-07-12T15:05:52.684Z,25.89
2023-07-12T15:06:57.868Z,25.91
2023-07-12T15:08:01.565Z,25.92
2023-07-12T15:09:08.305Z,25.91
2023-07-12T15:10:15.612Z,25.88
2023-07-12T15:11:20.662Z,25.81
2023-07-12T15:12:43.265Z,25.78
2023-07-12T15:13:48.581Z,25.79
2023-07-12T15:14:53.227Z,25.82
2023-07-12T15:15:58.416Z,25.86
2023-07-12T15:17:01.093Z,25.85
2023-07-12T15:18:18.622Z,25.84
2023-07-12T15:19:24.034Z,25.84
2023-07-12T15:20:26.916Z,25.85
2023-07-12T15:21:33.381Z,25.84
2023-07-12T15:22:36.449Z,25.84
2023-07-12T15:23:41.139Z,25.81
2023-07-12T15:24:43.651Z,25.79
2023-07-12T15:25:47.486Z,25.72
2023-07-12T15:26:52.561Z,25.66
2023-07-12T15:27:57.808Z,25.62
2023-07-12T15:29:02.573Z,25.59
2023-07-12T15:30:08.927Z,25.55
2023-07-12T15:31:19.988Z,25.52
2023-07-12T15:32:24.690Z,25.52
2023-07-12T15:33:30.487Z,25.50
2023-07-12T15:34:35.850Z,25.46
2023-07-12T15:35:40.944Z,25.43
2023-07-12T15:36:46.162Z,25.44
2023-07-12T15:37:50.291Z,25.46
2023-07-12T15:38:55.649Z,25.48
2023-07-12T15:40:00.933Z,25.51
2023-07-12T15:42:22.073Z,25.66
2023-07-12T15:44:56.885Z,25.65
2023-07-12T15:46:00.370Z,25.58
2023-07-12T15:47:06.740Z,25.61
2023-07-12T15:48:21.191Z,25.66
2023-07-12T15:49:26.289Z,25.68
2023-07-12T15:50:31.276Z,25.71
2023-07-12T15:51:39.399Z,25.74
2023-07-12T15:52:45.710Z,25.79
2023-07-12T15:53:49.425Z,25.85
2023-07-12T15:54:54.192Z,25.88
2023-07-12T15:55:59.305Z,25.87
2023-07-12T15:57:04.425Z,25.87
2023-07-12T15:58:26.493Z,25.87
2023-07-12T15:59:31.202Z,25.87
2023-07-12T16:00:35.689Z,25.81
2023-07-12T16:01:40.617Z,25.74
2023-07-12T16:02:45.415Z,25.70
2023-07-12T16:03:51.171Z,25.65
2023-07-12T16:04:56.027Z,25.59
2023-07-12T16:05:59.547Z,25.55
2023-07-12T16:07:04.582Z,25.51
2023-07-12T16:08:10.177Z,25.49
2023-07-12T16:09:15.407Z,25.48
2023-07-12T16:10:20.563Z,25.48
2023-07-12T16:11:31.850Z,25.50
2023-07-12T16:12:36.299Z,25.50
2023-07-12T16:13:54.543Z,25.46
2023-07-12T16:14:47.767Z,25.43
2023-07-12T16:15:53.949Z,25.38
2023-07-12T16:16:59.168Z,25.33
2023-07-12T16:18:04.653Z,25.29
2023-07-12T16:19:09.913Z,25.23
2023-07-12T16:20:15.578Z,25.20
2023-07-12T16:22:31.268Z,25.30
2023-07-12T16:23:38.528Z,25.21
2023-07-12T16:24:43.667Z,25.24
2023-07-12T16:25:48.319Z,25.23
2023-07-12T16:26:53.671Z,25.26
2023-07-12T16:27:58.509Z,25.31
2023-07-12T16:29:04.164Z,25.38
2023-07-12T16:30:12.313Z,25.52
2023-07-12T16:31:27.130Z,25.72
2023-07-12T16:32:32.055Z,26.03
2023-07-12T16:33:37.151Z,26.41
2023-07-12T16:34:41.810Z,26.74
2023-07-12T16:35:44.630Z,27.06
2023-07-12T16:36:51.573Z,27.40
2023-07-12T16:37:56.271Z,27.72
2023-07-12T16:39:01.881Z,28.06
2023-07-12T16:40:08.388Z,28.38
2023-07-12T16:42:27.540Z,28.88
2023-07-12T16:43:33.459Z,28.82
2023-07-12T16:44:38.570Z,28.76
2023-07-12T16:45:43.260Z,28.60
2023-07-12T16:46:48.166Z,28.39
2023-07-12T16:47:54.963Z,28.21
2023-07-12T16:49:00.199Z,28.09
2023-07-12T16:50:06.992Z,28.03
2023-07-12T16:51:20.834Z,27.98
2023-07-12T16:52:25.971Z,27.90
2023-07-12T16:53:36.487Z,27.80
2023-07-12T16:54:41.116Z,27.74
2023-07-12T16:55:47.274Z,27.69
2023-07-12T16:56:52.854Z,27.64
2023-07-12T16:57:57.987Z,27.61
2023-07-12T16:59:02.758Z,27.64
2023-07-12T17:01:26.626Z,28.03
2023-07-12T17:02:31.489Z,28.12
2023-07-12T17:03:35.685Z,28.35
2023-07-12T17:04:40.698Z,28.62
2023-07-12T17:05:45.493Z,28.92
2023-07-12T17:06:50.826Z,29.24
2023-07-12T17:07:55.507Z,29.60
2023-07-12T17:09:01.141Z,29.87
2023-07-12T17:10:05.566Z,30.08
2023-07-12T17:11:13.626Z,30.05
2023-07-12T17:13:35.910Z,29.71
2023-07-12T17:14:41.127Z,29.36
2023-07-12T17:15:46.975Z,29.10
2023-07-12T17:16:52.847Z,28.86
2023-07-12T17:17:59.529Z,28.63
2023-07-12T17:19:05.027Z,28.42
2023-07-12T17:20:11.847Z,28.17
2023-07-12T17:21:18.736Z,27.90
2023-07-12T17:22:23.673Z,27.64
2023-07-12T17:23:30.380Z,27.38
2023-07-12T17:24:35.573Z,27.15
2023-07-12T17:25:40.269Z,26.94
2023-07-12T17:27:53.040Z,26.67
2023-07-12T17:28:57.594Z,26.44
2023-07-12T17:30:02.296Z,26.30
2023-07-12T17:31:19.803Z,26.12
2023-07-12T17:32:27.942Z,26.02
2023-07-12T17:33:33.064Z,25.87
2023-07-12T17:34:38.163Z,25.76
2023-07-12T17:35:43.528Z,25.62
2023-07-12T17:36:48.386Z,25.48
2023-07-12T17:37:53.472Z,25.37
2023-07-12T17:38:58.131Z,25.26
2023-07-12T17:40:08.510Z,25.16
2023-07-12T17:41:11.142Z,25.09
2023-07-12T17:42:15.711Z,25.03
2023-07-12T17:44:31.102Z,25.00
2023-07-12T17:45:35.870Z,24.86
2023-07-12T17:46:40.671Z,24.82
2023-07-12T17:47:45.480Z,24.78
2023-07-12T17:48:50.193Z,24.73
2023-07-12T17:49:55.385Z,24.70
2023-07-12T17:50:59.586Z,24.64
2023-07-12T17:52:04.535Z,24.59
2023-07-12T17:54:21.079Z,24.58
2023-07-12T17:55:25.855Z,24.41
2023-07-12T17:56:31.181Z,24.35
2023-07-12T17:57:36.948Z,24.31
2023-07-12T17:58:41.710Z,24.26
2023-07-12T17:59:45.895Z,24.20
2023-07-12T18:00:52.334Z,24.15
2023-07-12T18:01:57.089Z,24.10
2023-07-12T18:03:01.963Z,24.02
2023-07-12T18:04:05.854Z,23.96
2023-07-12T18:06:24.893Z,23.91
2023-07-12T18:07:30.118Z,23.75
2023-07-12T18:08:34.748Z,23.69
2023-07-12T18:09:40.117Z,23.65
2023-07-12T18:11:58.490Z,23.65
2023-07-12T18:13:02.759Z,23.50
2023-07-12T18:14:07.525Z,23.46
2023-07-12T18:15:22.198Z,23.40
2023-07-12T18:16:28.003Z,23.37
2023-07-12T18:17:32.923Z,23.32
2023-07-12T18:18:38.281Z,23.27
2023-07-12T18:19:42.954Z,23.22
2023-07-12T18:20:48.981Z,23.19
2023-07-12T18:21:53.667Z,23.14
2023-07-12T18:22:58.882Z,23.09
2023-07-12T18:24:04.807Z,23.04
2023-07-12T18:25:18.708Z,23.01
2023-07-12T18:26:23.063Z,22.97
2023-07-12T18:27:28.470Z,22.92
2023-07-12T18:28:33.251Z,22.87
2023-07-12T18:29:38.383Z,22.83
2023-07-12T18:30:44.070Z,22.77
2023-07-12T18:31:49.328Z,22.72
2023-07-12T18:32:54.150Z,22.68
2023-07-12T18:34:00.527Z,22.63
2023-07-12T18:35:04.887Z,22.58
2023-07-12T18:36:12.072Z,22.55
2023-07-12T18:37:16.806Z,22.52
2023-07-12T18:38:22.445Z,22.48
2023-07-12T18:39:27.748Z,22.45
2023-07-12T18:40:32.549Z,22.42
2023-07-12T18:41:37.176Z,22.39
2023-07-12T18:42:41.987Z,22.36
2023-07-12T18:43:46.722Z,22.33
2023-07-12T18:44:51.582Z,22.28
2023-07-12T18:45:56.908Z,22.24
2023-07-12T18:47:02.170Z,22.20
2023-07-12T18:48:08.504Z,22.16
2023-07-12T18:49:10.912Z,22.13
2023-07-12T18:50:16.711Z,22.10
2023-07-12T18:51:28.038Z,22.08
2023-07-12T18:52:32.673Z,22.05
2023-07-12T18:53:37.480Z,22.02
2023-07-12T18:54:40.693Z,22.01
2023-07-12T18:55:45.421Z,21.98
2023-07-12T18:56:50.184Z,21.96
2023-07-12T18:57:56.174Z,21.94
2023-07-12T18:59:01.877Z,21.90
2023-07-12T19:00:07.148Z,21.89
2023-07-12T19:01:23.762Z,21.87
2023-07-12T19:02:29.330Z,21.84
2023-07-12T19:04:44.942Z,21.91
2023-07-12T19:05:49.986Z,21.77
2023-07-12T19:06:55.037Z,21.76
2023-07-12T19:07:59.711Z,21.75
2023-07-12T19:09:04.414Z,21.73
2023-07-12T19:10:13.690Z,21.71
2023-07-12T19:11:34.704Z,21.71
2023-07-12T19:12:39.478Z,21.70
2023-07-12T19:13:44.147Z,21.68
2023-07-12T19:14:49.304Z,21.68
2023-07-12T19:15:53.985Z,21.66
2023-07-12T19:16:59.042Z,21.64
2023-07-12T19:18:04.310Z,21.62
2023-07-12T19:19:09.413Z,21.60
2023-07-12T19:20:15.393Z,21.58
2023-07-12T19:22:37.062Z,21.63
2023-07-12T19:23:42.192Z,21.52
2023-07-12T19:24:45.085Z,21.51
2023-07-12T19:25:50.003Z,21.51
2023-07-12T19:26:55.482Z,21.52
2023-07-12T19:28:00.205Z,21.52
2023-07-12T19:29:05.367Z,21.52
2023-07-12T19:30:12.431Z,21.52
2023-07-12T19:32:32.089Z,21.61
2023-07-12T19:33:37.533Z,21.51
2023-07-12T19:34:44.212Z,21.51
2023-07-12T19:35:49.561Z,21.52
2023-07-12T19:36:53.283Z,21.52
2023-07-12T19:37:58.503Z,21.54
2023-07-12T19:39:04.137Z,21.55
2023-07-12T19:40:10.474Z,21.56
2023-07-12T19:41:18.650Z,21.57
2023-07-12T19:42:24.762Z,21.59
2023-07-12T19:43:29.883Z,21.60
2023-07-12T19:44:34.994Z,21.61
2023-07-12T19:45:40.305Z,21.62
2023-07-12T19:46:45.723Z,21.62
2023-07-12T19:47:50.277Z,21.63
2023-07-12T19:48:55.061Z,21.63
2023-07-12T19:50:00.189Z,21.62
2023-07-12T19:51:05.450Z,21.63
2023-07-12T19:52:16.888Z,21.61
2023-07-12T19:53:28.019Z,21.59
2023-07-12T19:54:32.416Z,21.58
2023-07-12T19:55:37.764Z,21.57
2023-07-12T19:56:42.263Z,21.55
2023-07-12T19:57:47.961Z,21.53
2023-07-12T19:58:54.498Z,21.52
2023-07-12T19:59:59.157Z,21.48
2023-07-12T20:01:04.294Z,21.47
2023-07-12T20:02:20.508Z,21.45
2023-07-12T20:03:25.766Z,21.43
2023-07-12T20:04:31.917Z,21.41
2023-07-12T20:05:36.968Z,21.40
2023-07-12T20:06:42.242Z,21.38
2023-07-12T20:07:48.269Z,21.37
2023-07-12T20:08:52.742Z,21.36
2023-07-12T20:09:57.386Z,21.35
2023-07-12T20:11:02.125Z,21.32
2023-07-12T20:12:06.415Z,21.31
2023-07-12T20:13:11.698Z,21.29
2023-07-12T20:14:16.681Z,21.28
2023-07-12T20:15:22.208Z,21.26
2023-07-12T20:16:25.882Z,21.24
2023-07-12T20:17:31.320Z,21.21
2023-07-12T20:18:35.608Z,21.20
2023-07-12T20:19:40.303Z,21.18
2023-07-12T20:20:45.224Z,21.16
2023-07-12T20:21:49.944Z,21.15
2023-07-12T20:22:54.735Z,21.13
2023-07-12T20:23:59.754Z,21.11
2023-07-12T20:25:04.632Z,21.09
2023-07-12T20:26:10.232Z,21.07
2023-07-12T20:27:15.481Z,21.05
2023-07-12T20:28:20.709Z,21.03
2023-07-12T20:29:25.477Z,21.01
2023-07-12T20:30:30.936Z,21.00
2023-07-12T20:31:36.318Z,20.98
2023-07-12T20:32:39.004Z,20.97
2023-07-12T20:33:44.332Z,20.96
2023-07-12T20:34:49.036Z,20.95
2023-07-12T20:35:54.200Z,20.94
2023-07-12T20:36:59.399Z,20.92
2023-07-12T20:38:04.016Z,20.91
2023-07-12T20:39:09.198Z,20.89
2023-07-12T20:40:15.129Z,20.89
2023-07-12T20:41:19.982Z,20.88
2023-07-12T20:42:25.090Z,20.86
2023-07-12T20:43:29.777Z,20.85
2023-07-12T20:44:34.440Z,20.85
2023-07-12T20:45:39.161Z,20.83
2023-07-12T20:46:44.247Z,20.82
2023-07-12T20:47:48.760Z,20.81
2023-07-12T20:48:53.834Z,20.80
2023-07-12T20:49:58.956Z,20.80
2023-07-12T20:51:10.249Z,20.80